Terminal Aerodrome Forecast
Issued by NWS Boston, MA

Home | Current Version | Previous Version | Text Only | Print | Product List | Glossary On
Versions: 1 2 3 4 5 6 7 8 9 10 11 12 13 14 15 16 17 18 19 20 21 22 23
000
FTUS41 KBOX 272020 AAA
TAFBOS
TAF AMD
KBOS 272020Z 2720/2824 09010KT P6SM SCT250
     FM272300 14007KT P6SM SCT060
     FM280000 22009KT P6SM SCT050
     FM281000 23008KT 6SM BR SCT005
     FM281300 24007KT P6SM SCT110
     FM281700 20009KT P6SM BKN050=

USA.gov is the U.S. government's official web portal to all federal, state and local government web resources and services.